sensor_id;sensor_type;location;lat;lon;timestamp;pressure;altitude;pressure_sealevel;temperature;humidity
79138;BME280;68544;45.566;10.238;2023-04-01T00:00:32;98626.09;;;12.38;65.81
79138;BME280;68544;45.566;10.238;2023-04-01T00:02:58;98624.75;;;12.29;66.16
79138;BME280;68544;45.566;10.238;2023-04-01T00:05:23;98634.72;;;12.17;66.58
79138;BME280;68544;45.566;10.238;2023-04-01T00:07:51;98630.50;;;12.21;66.65
79138;BME280;68544;45.566;10.238;2023-04-01T00:10:17;98632.25;;;12.16;66.74
79138;BME280;68544;45.566;10.238;2023-04-01T00:12:43;98629.91;;;12.19;66.65
79138;BME280;68544;45.566;10.238;2023-04-01T00:15:09;98623.03;;;12.05;67.11
79138;BME280;68544;45.566;10.238;2023-04-01T00:17:35;98627.06;;;11.84;68.11
79138;BME280;68544;45.566;10.238;2023-04-01T00:20:02;98625.66;;;11.82;68.00
79138;BME280;68544;45.566;10.238;2023-04-01T00:22:28;98627.66;;;11.86;67.58
79138;BME280;68544;45.566;10.238;2023-04-01T00:24:53;98616.72;;;11.63;68.47
79138;BME280;68544;45.566;10.238;2023-04-01T00:27:19;98619.38;;;11.52;68.41
79138;BME280;68544;45.566;10.238;2023-04-01T00:29:45;98619.38;;;11.52;68.42
79138;BME280;68544;45.566;10.238;2023-04-01T00:32:11;98604.94;;;11.58;67.86
79138;BME280;68544;45.566;10.238;2023-04-01T00:34:37;98626.41;;;11.53;68.28
79138;BME280;68544;45.566;10.238;2023-04-01T00:37:03;98636.94;;;11.43;68.30
79138;BME280;68544;45.566;10.238;2023-04-01T00:39:31;98626.81;;;11.56;67.60
79138;BME280;68544;45.566;10.238;2023-04-01T00:41:58;98640.69;;;11.60;67.19
79138;BME280;68544;45.566;10.238;2023-04-01T00:44:29;98634.25;;;11.61;66.23
79138;BME280;68544;45.566;10.238;2023-04-01T00:46:56;98642.59;;;11.41;66.10
79138;BME280;68544;45.566;10.238;2023-04-01T00:49:23;98632.38;;;11.43;65.26
79138;BME280;68544;45.566;10.238;2023-04-01T00:51:53;98639.28;;;11.39;64.95
79138;BME280;68544;45.566;10.238;2023-04-01T00:54:20;98641.75;;;11.41;64.20
79138;BME280;68544;45.566;10.238;2023-04-01T00:56:50;98631.41;;;11.38;64.12
79138;BME280;68544;45.566;10.238;2023-04-01T00:59:23;98634.41;;;11.48;63.43
79138;BME280;68544;45.566;10.238;2023-04-01T01:01:49;98628.72;;;11.38;63.66
79138;BME280;68544;45.566;10.238;2023-04-01T01:04:30;98630.34;;;11.39;63.44
79138;BME280;68544;45.566;10.238;2023-04-01T01:09:48;98634.38;;;11.11;63.95
79138;BME280;68544;45.566;10.238;2023-04-01T01:12:22;98628.69;;;11.01;64.93
79138;BME280;68544;45.566;10.238;2023-04-01T01:20:18;98626.88;;;11.13;67.41
79138;BME280;68544;45.566;10.238;2023-04-01T01:25:47;98626.66;;;10.97;65.99
79138;BME280;68544;45.566;10.238;2023-04-01T01:36:15;98625.88;;;10.90;63.98
79138;BME280;68544;45.566;10.238;2023-04-01T01:38:41;98623.94;;;10.97;63.60
79138;BME280;68544;45.566;10.238;2023-04-01T01:41:07;98625.63;;;10.73;64.53
79138;BME280;68544;45.566;10.238;2023-04-01T01:43:40;98632.22;;;10.77;63.96
79138;BME280;68544;45.566;10.238;2023-04-01T01:46:12;98626.53;;;10.67;64.23
79138;BME280;68544;45.566;10.238;2023-04-01T01:48:42;98631.09;;;10.67;64.70
79138;BME280;68544;45.566;10.238;2023-04-01T01:51:08;98622.81;;;10.37;65.95
79138;BME280;68544;45.566;10.238;2023-04-01T01:53:34;98625.38;;;10.32;66.49
79138;BME280;68544;45.566;10.238;2023-04-01T01:56:00;98621.28;;;10.48;66.51
79138;BME280;68544;45.566;10.238;2023-04-01T01:58:32;98618.50;;;10.36;67.66
79138;BME280;68544;45.566;10.238;2023-04-01T02:01:03;98620.63;;;10.27;68.08
79138;BME280;68544;45.566;10.238;2023-04-01T02:03:33;98621.78;;;10.38;67.39
79138;BME280;68544;45.566;10.238;2023-04-01T02:06:01;98617.88;;;10.34;68.05
79138;BME280;68544;45.566;10.238;2023-04-01T02:08:33;98630.59;;;10.27;68.68
79138;BME280;68544;45.566;10.238;2023-04-01T02:11:06;98625.88;;;10.16;68.90
79138;BME280;68544;45.566;10.238;2023-04-01T02:16:08;98614.91;;;10.17;68.40
79138;BME280;68544;45.566;10.238;2023-04-01T02:18:37;98626.50;;;10.18;68.68
79138;BME280;68544;45.566;10.238;2023-04-01T02:21:04;98632.28;;;10.21;68.51
79138;BME280;68544;45.566;10.238;2023-04-01T02:23:33;98632.06;;;10.23;68.35
79138;BME280;68544;45.566;10.238;2023-04-01T02:25:59;98643.03;;;10.28;68.37
79138;BME280;68544;45.566;10.238;2023-04-01T02:28:26;98651.91;;;9.97;69.35
79138;BME280;68544;45.566;10.238;2023-04-01T02:30:53;98648.53;;;10.08;69.29
79138;BME280;68544;45.566;10.238;2023-04-01T02:33:19;98664.59;;;9.97;69.17
79138;BME280;68544;45.566;10.238;2023-04-01T02:35:46;98666.00;;;9.55;70.67
79138;BME280;68544;45.566;10.238;2023-04-01T02:38:11;98672.56;;;9.72;70.17
79138;BME280;68544;45.566;10.238;2023-04-01T02:40:46;98674.13;;;9.48;71.24
79138;BME280;68544;45.566;10.238;2023-04-01T02:43:11;98675.81;;;9.36;71.66
79138;BME280;68544;45.566;10.238;2023-04-01T02:45:37;98675.19;;;9.41;71.69
79138;BME280;68544;45.566;10.238;2023-04-01T02:48:02;98663.41;;;9.29;71.64
79138;BME280;68544;45.566;10.238;2023-04-01T02:50:28;98667.88;;;9.61;70.53
79138;BME280;68544;45.566;10.238;2023-04-01T02:52:53;98669.13;;;9.59;71.21
79138;BME280;68544;45.566;10.238;2023-04-01T02:55:18;98657.13;;;9.54;71.17
79138;BME280;68544;45.566;10.238;2023-04-01T02:57:44;98663.91;;;9.57;71.06
79138;BME280;68544;45.566;10.238;2023-04-01T03:00:10;98668.94;;;9.47;71.17
79138;BME280;68544;45.566;10.238;2023-04-01T03:02:37;98669.78;;;9.41;71.64
79138;BME280;68544;45.566;10.238;2023-04-01T03:05:03;98675.84;;;9.30;71.93
79138;BME280;68544;45.566;10.238;2023-04-01T03:07:29;98667.34;;;9.26;72.26
79138;BME280;68544;45.566;10.238;2023-04-01T03:09:54;98649.75;;;9.17;72.30
79138;BME280;68544;45.566;10.238;2023-04-01T03:12:20;98667.56;;;9.31;71.96
79138;BME280;68544;45.566;10.238;2023-04-01T03:14:45;98676.75;;;9.62;70.63
79138;BME280;68544;45.566;10.238;2023-04-01T03:17:10;98684.09;;;9.41;71.05
79138;BME280;68544;45.566;10.238;2023-04-01T03:19:36;98690.47;;;9.53;70.46
79138;BME280;68544;45.566;10.238;2023-04-01T03:22:01;98696.00;;;9.72;69.30
79138;BME280;68544;45.566;10.238;2023-04-01T03:24:26;98697.72;;;9.60;69.24
79138;BME280;68544;45.566;10.238;2023-04-01T03:26:52;98691.09;;;9.55;69.24
79138;BME280;68544;45.566;10.238;2023-04-01T03:29:17;98701.22;;;9.67;68.46
79138;BME280;68544;45.566;10.238;2023-04-01T03:31:42;98703.88;;;9.73;68.09
79138;BME280;68544;45.566;10.238;2023-04-01T03:34:08;98706.84;;;9.59;68.50
79138;BME280;68544;45.566;10.238;2023-04-01T03:36:34;98704.41;;;9.50;68.84
79138;BME280;68544;45.566;10.238;2023-04-01T03:38:59;98701.25;;;9.53;68.24
79138;BME280;68544;45.566;10.238;2023-04-01T03:41:24;98701.47;;;9.52;67.84
79138;BME280;68544;45.566;10.238;2023-04-01T03:43:50;98710.19;;;9.47;68.11
79138;BME280;68544;45.566;10.238;2023-04-01T03:46:19;98709.00;;;9.30;68.65
79138;BME280;68544;45.566;10.238;2023-04-01T03:48:45;98713.50;;;9.43;68.42
79138;BME280;68544;45.566;10.238;2023-04-01T03:51:10;98711.28;;;9.33;68.64
79138;BME280;68544;45.566;10.238;2023-04-01T03:53:36;98714.00;;;9.14;69.38
79138;BME280;68544;45.566;10.238;2023-04-01T03:56:05;98708.78;;;9.32;69.17
79138;BME280;68544;45.566;10.238;2023-04-01T03:58:31;98706.69;;;9.40;69.49
79138;BME280;68544;45.566;10.238;2023-04-01T04:00:56;98712.50;;;9.37;69.66
79138;BME280;68544;45.566;10.238;2023-04-01T04:03:22;98711.66;;;9.43;69.16
79138;BME280;68544;45.566;10.238;2023-04-01T04:05:48;98712.66;;;9.55;68.82
79138;BME280;68544;45.566;10.238;2023-04-01T04:08:15;98702.44;;;9.71;68.03
79138;BME280;68544;45.566;10.238;2023-04-01T04:10:40;98702.25;;;9.66;67.24
79138;BME280;68544;45.566;10.238;2023-04-01T04:13:06;98700.59;;;9.65;66.72
79138;BME280;68544;45.566;10.238;2023-04-01T04:15:31;98706.06;;;9.32;68.65
79138;BME280;68544;45.566;10.238;2023-04-01T04:17:57;98707.97;;;9.31;68.83
79138;BME280;68544;45.566;10.238;2023-04-01T04:20:22;98705.44;;;9.36;67.51
79138;BME280;68544;45.566;10.238;2023-04-01T04:22:47;98707.75;;;9.33;66.95
79138;BME280;68544;45.566;10.238;2023-04-01T04:25:13;98706.06;;;9.32;66.73
79138;BME280;68544;45.566;10.238;2023-04-01T04:27:38;98709.63;;;9.19;66.95
79138;BME280;68544;45.566;10.238;2023-04-01T04:30:05;98718.53;;;9.33;66.81
79138;BME280;68544;45.566;10.238;2023-04-01T04:32:31;98720.84;;;9.16;67.85
79138;BME280;68544;45.566;10.238;2023-04-01T04:34:57;98718.53;;;9.26;67.76
79138;BME280;68544;45.566;10.238;2023-04-01T04:37:22;98713.97;;;9.33;67.16
79138;BME280;68544;45.566;10.238;2023-04-01T04:39:47;98726.00;;;9.05;68.24
79138;BME280;68544;45.566;10.238;2023-04-01T04:42:12;98717.94;;;9.05;68.44
79138;BME280;68544;45.566;10.238;2023-04-01T04:44:39;98722.91;;;9.21;67.69
79138;BME280;68544;45.566;10.238;2023-04-01T04:47:04;98721.06;;;9.15;67.86
79138;BME280;68544;45.566;10.238;2023-04-01T04:49:31;98718.97;;;9.17;67.78
79138;BME280;68544;45.566;10.238;2023-04-01T04:51:56;98720.22;;;8.95;68.96
79138;BME280;68544;45.566;10.238;2023-04-01T04:54:21;98731.81;;;9.08;68.51
79138;BME280;68544;45.566;10.238;2023-04-01T04:56:47;98723.75;;;9.08;68.43
79138;BME280;68544;45.566;10.238;2023-04-01T04:59:12;98728.91;;;8.90;69.19
79138;BME280;68544;45.566;10.238;2023-04-01T05:01:38;98711.13;;;8.89;69.28
79138;BME280;68544;45.566;10.238;2023-04-01T05:04:03;98725.00;;;8.99;68.74
79138;BME280;68544;45.566;10.238;2023-04-01T05:06:29;98730.56;;;9.17;68.20
79138;BME280;68544;45.566;10.238;2023-04-01T05:08:55;98737.84;;;9.10;68.70
79138;BME280;68544;45.566;10.238;2023-04-01T05:11:20;98739.50;;;8.92;69.78
79138;BME280;68544;45.566;10.238;2023-04-01T05:13:46;98726.44;;;8.89;69.41
79138;BME280;68544;45.566;10.238;2023-04-01T05:16:14;98728.53;;;9.06;68.55
79138;BME280;68544;45.566;10.238;2023-04-01T05:18:40;98737.16;;;9.21;67.49
79138;BME280;68544;45.566;10.238;2023-04-01T05:21:07;98731.78;;;9.21;67.21
79138;BME280;68544;45.566;10.238;2023-04-01T05:23:33;98740.69;;;9.35;66.73
79138;BME280;68544;45.566;10.238;2023-04-01T05:26:03;98735.13;;;9.17;67.39
79138;BME280;68544;45.566;10.238;2023-04-01T05:28:28;98734.47;;;9.21;67.29
79138;BME280;68544;45.566;10.238;2023-04-01T05:30:53;98732.63;;;9.22;67.36
79138;BME280;68544;45.566;10.238;2023-04-01T05:33:19;98734.69;;;9.13;67.44
79138;BME280;68544;45.566;10.238;2023-04-01T05:35:44;98736.16;;;9.09;67.65
79138;BME280;68544;45.566;10.238;2023-04-01T05:38:09;98738.03;;;8.83;69.05
79138;BME280;68544;45.566;10.238;2023-04-01T05:40:35;98732.22;;;8.92;68.93
79138;BME280;68544;45.566;10.238;2023-04-01T05:43:00;98742.16;;;9.11;68.29
79138;BME280;68544;45.566;10.238;2023-04-01T05:45:26;98743.44;;;9.02;68.83
79138;BME280;68544;45.566;10.238;2023-04-01T05:47:52;98742.38;;;8.97;68.87
79138;BME280;68544;45.566;10.238;2023-04-01T05:50:17;98736.59;;;8.80;69.65
79138;BME280;68544;45.566;10.238;2023-04-01T05:52:43;98744.63;;;9.13;68.12
79138;BME280;68544;45.566;10.238;2023-04-01T05:55:09;98746.53;;;9.25;67.60
79138;BME280;68544;45.566;10.238;2023-04-01T05:57:35;98753.31;;;9.47;66.50
79138;BME280;68544;45.566;10.238;2023-04-01T06:00:00;98760.69;;;9.72;65.33
79138;BME280;68544;45.566;10.238;2023-04-01T06:02:25;98761.09;;;9.82;64.76
79138;BME280;68544;45.566;10.238;2023-04-01T06:05:02;98756.06;;;9.92;63.00
79138;BME280;68544;45.566;10.238;2023-04-01T06:07:28;98752.84;;;10.21;62.19
79138;BME280;68544;45.566;10.238;2023-04-01T06:09:54;98751.31;;;10.38;61.27
79138;BME280;68544;45.566;10.238;2023-04-01T06:18:09;98763.66;;;10.52;62.15
79138;BME280;68544;45.566;10.238;2023-04-01T06:20:52;98752.75;;;10.72;61.46
79138;BME280;68544;45.566;10.238;2023-04-01T06:23:37;98757.69;;;11.06;60.15
79138;BME280;68544;45.566;10.238;2023-04-01T06:26:46;98769.06;;;11.33;59.38
79138;BME280;68544;45.566;10.238;2023-04-01T06:35:25;98776.66;;;12.21;55.82
79138;BME280;68544;45.566;10.238;2023-04-01T06:40:55;98776.16;;;12.72;54.04
79138;BME280;68544;45.566;10.238;2023-04-01T06:43:37;98770.78;;;12.54;55.32
79138;BME280;68544;45.566;10.238;2023-04-01T06:49:07;98775.97;;;12.97;53.83
79138;BME280;68544;45.566;10.238;2023-04-01T06:54:15;98762.13;;;13.16;52.75
79138;BME280;68544;45.566;10.238;2023-04-01T06:56:44;98774.66;;;13.29;53.94
79138;BME280;68544;45.566;10.238;2023-04-01T06:59:25;98775.81;;;13.56;53.31
79138;BME280;68544;45.566;10.238;2023-04-01T07:01:55;98779.78;;;13.88;52.25
79138;BME280;68544;45.566;10.238;2023-04-01T07:04:43;98778.50;;;13.91;52.10
79138;BME280;68544;45.566;10.238;2023-04-01T07:07:19;98772.56;;;14.05;50.65
79138;BME280;68544;45.566;10.238;2023-04-01T07:09:52;98777.09;;;14.28;49.06
79138;BME280;68544;45.566;10.238;2023-04-01T07:12:43;98771.81;;;14.33;49.33
79138;BME280;68544;45.566;10.238;2023-04-01T07:15:17;98785.38;;;14.89;47.69
79138;BME280;68544;45.566;10.238;2023-04-01T07:17:44;98773.72;;;15.39;46.82
79138;BME280;68544;45.566;10.238;2023-04-01T07:22:57;98776.91;;;15.69;44.79
79138;BME280;68544;45.566;10.238;2023-04-01T07:25:33;98775.97;;;15.58;44.96
79138;BME280;68544;45.566;10.238;2023-04-01T07:28:11;98767.13;;;15.68;43.57
79138;BME280;68544;45.566;10.238;2023-04-01T07:31:04;98774.66;;;16.21;42.15
79138;BME280;68544;45.566;10.238;2023-04-01T07:36:24;98775.72;;;16.90;41.25
79138;BME280;68544;45.566;10.238;2023-04-01T07:42:09;98765.38;;;16.92;40.42
79138;BME280;68544;45.566;10.238;2023-04-01T07:44:54;98767.81;;;17.20;39.98
79138;BME280;68544;45.566;10.238;2023-04-01T07:50:39;98771.28;;;17.79;39.32
79138;BME280;68544;45.566;10.238;2023-04-01T07:56:18;98776.84;;;17.94;38.26
79138;BME280;68544;45.566;10.238;2023-04-01T07:59:14;98779.50;;;17.79;38.01
79138;BME280;68544;45.566;10.238;2023-04-01T08:01:56;98759.66;;;17.98;37.78
79138;BME280;68544;45.566;10.238;2023-04-01T08:15:55;98766.78;;;20.22;31.74
79138;BME280;68544;45.566;10.238;2023-04-01T08:21:27;98779.72;;;20.71;29.82
79138;BME280;68544;45.566;10.238;2023-04-01T08:23:56;98768.59;;;20.91;29.53
79138;BME280;68544;45.566;10.238;2023-04-01T08:28:55;98770.78;;;21.38;28.42
79138;BME280;68544;45.566;10.238;2023-04-01T08:31:29;98762.28;;;22.20;27.23
79138;BME280;68544;45.566;10.238;2023-04-01T08:33:57;98767.59;;;22.59;26.08
79138;BME280;68544;45.566;10.238;2023-04-01T08:36:34;98756.88;;;23.83;23.97
79138;BME280;68544;45.566;10.238;2023-04-01T08:39:06;98751.03;;;27.25;17.83
79138;BME280;68544;45.566;10.238;2023-04-01T08:52:35;98738.91;;;38.40;7.05
79138;BME280;68544;45.566;10.238;2023-04-01T08:58:26;98741.34;;;38.52;7.50
79138;BME280;68544;45.566;10.238;2023-04-01T09:01:42;98738.41;;;39.30;6.78
79138;BME280;68544;45.566;10.238;2023-04-01T09:07:10;98744.13;;;32.88;11.35
79138;BME280;68544;45.566;10.238;2023-04-01T09:12:35;98739.34;;;28.96;14.19
79138;BME280;68544;45.566;10.238;2023-04-01T09:17:56;98743.84;;;26.90;16.99
79138;BME280;68544;45.566;10.238;2023-04-01T09:27:03;98743.03;;;28.79;15.00
79138;BME280;68544;45.566;10.238;2023-04-01T09:35:24;98737.25;;;38.96;6.61
79138;BME280;68544;45.566;10.238;2023-04-01T09:38:19;98739.00;;;39.87;6.24
79138;BME280;68544;45.566;10.238;2023-04-01T09:40:55;98730.97;;;40.88;5.36
79138;BME280;68544;45.566;10.238;2023-04-01T09:49:30;98728.41;;;41.41;5.32
79138;BME280;68544;45.566;10.238;2023-04-01T09:57:36;98727.50;;;44.54;3.15
79138;BME280;68544;45.566;10.238;2023-04-01T10:00:27;98723.28;;;43.91;3.63
79138;BME280;68544;45.566;10.238;2023-04-01T10:03:32;98717.59;;;43.12;3.60
79138;BME280;68544;45.566;10.238;2023-04-01T10:06:31;98716.63;;;43.81;3.38
79138;BME280;68544;45.566;10.238;2023-04-01T10:20:41;98701.31;;;44.59;2.62
79138;BME280;68544;45.566;10.238;2023-04-01T10:26:09;98696.00;;;42.95;3.23
79138;BME280;68544;45.566;10.238;2023-04-01T10:42:20;98697.50;;;43.03;2.72
79138;BME280;68544;45.566;10.238;2023-04-01T10:45:21;98689.78;;;42.81;2.69
79138;BME280;68544;45.566;10.238;2023-04-01T10:48:13;98692.63;;;42.58;3.51
79138;BME280;68544;45.566;10.238;2023-04-01T10:57:02;98691.06;;;42.07;3.23
79138;BME280;68544;45.566;10.238;2023-04-01T11:11:11;98666.06;;;42.48;3.99
79138;BME280;68544;45.566;10.238;2023-04-01T11:24:49;98645.41;;;42.67;4.39
79138;BME280;68544;45.566;10.238;2023-04-01T11:27:49;98650.59;;;44.06;3.41
79138;BME280;68544;45.566;10.238;2023-04-01T11:32:54;98643.69;;;42.27;3.95
79138;BME280;68544;45.566;10.238;2023-04-01T11:44:16;98638.66;;;40.94;4.37
79138;BME280;68544;45.566;10.238;2023-04-01T11:47:04;98637.25;;;41.73;3.71
79138;BME280;68544;45.566;10.238;2023-04-01T11:58:08;98621.06;;;42.66;3.57
79138;BME280;68544;45.566;10.238;2023-04-01T12:03:34;98623.94;;;37.42;6.43
79138;BME280;68544;45.566;10.238;2023-04-01T12:06:08;98623.19;;;34.46;7.94
79138;BME280;68544;45.566;10.238;2023-04-01T12:09:01;98625.56;;;33.11;8.86
79138;BME280;68544;45.566;10.238;2023-04-01T12:11:33;98629.56;;;32.06;11.14
79138;BME280;68544;45.566;10.238;2023-04-01T12:16:51;98622.81;;;29.68;10.83
79138;BME280;68544;45.566;10.238;2023-04-01T12:19:29;98615.75;;;28.94;11.97
79138;BME280;68544;45.566;10.238;2023-04-01T12:22:23;98624.75;;;28.49;12.31
79138;BME280;68544;45.566;10.238;2023-04-01T12:27:58;98613.94;;;26.80;14.25
79138;BME280;68544;45.566;10.238;2023-04-01T12:33:25;98610.31;;;26.19;13.44
79138;BME280;68544;45.566;10.238;2023-04-01T12:36:04;98606.25;;;26.34;13.75
79138;BME280;68544;45.566;10.238;2023-04-01T12:45:33;98600.03;;;25.63;14.57
79138;BME280;68544;45.566;10.238;2023-04-01T12:47:47;98594.25;;;25.43;16.32
79138;BME280;68544;45.566;10.238;2023-04-01T12:56:03;98584.34;;;25.20;14.86
79138;BME280;68544;45.566;10.238;2023-04-01T12:58:56;98589.91;;;25.28;13.63
79138;BME280;68544;45.566;10.238;2023-04-01T13:01:39;98582.09;;;24.99;15.72
79138;BME280;68544;45.566;10.238;2023-04-01T13:10:13;98579.00;;;24.35;16.08
79138;BME280;68544;45.566;10.238;2023-04-01T13:13:03;98569.28;;;24.37;14.58
79138;BME280;68544;45.566;10.238;2023-04-01T13:16:05;98570.28;;;24.41;15.22
79138;BME280;68544;45.566;10.238;2023-04-01T13:27:14;98575.00;;;23.64;15.42
79138;BME280;68544;45.566;10.238;2023-04-01T13:45:34;98543.66;;;23.74;15.17
79138;BME280;68544;45.566;10.238;2023-04-01T13:56:50;98553.13;;;23.81;15.09
79138;BME280;68544;45.566;10.238;2023-04-01T14:04:53;98557.56;;;23.41;15.71
79138;BME280;68544;45.566;10.238;2023-04-01T14:18:48;98552.00;;;23.14;14.60
79138;BME280;68544;45.566;10.238;2023-04-01T14:21:41;98537.47;;;22.95;16.09
79138;BME280;68544;45.566;10.238;2023-04-01T14:24:28;98533.25;;;22.52;14.13
79138;BME280;68544;45.566;10.238;2023-04-01T14:27:21;98549.63;;;22.43;14.31
79138;BME280;68544;45.566;10.238;2023-04-01T14:30:00;98538.56;;;22.11;14.32
79138;BME280;68544;45.566;10.238;2023-04-01T14:32:35;98543.88;;;22.08;14.73
79138;BME280;68544;45.566;10.238;2023-04-01T14:46:38;98542.47;;;21.68;15.48
79138;BME280;68544;45.566;10.238;2023-04-01T14:49:19;98544.28;;;21.54;16.08
79138;BME280;68544;45.566;10.238;2023-04-01T14:51:46;98541.13;;;21.42;16.04
79138;BME280;68544;45.566;10.238;2023-04-01T14:54:16;98529.78;;;21.48;16.43
79138;BME280;68544;45.566;10.238;2023-04-01T15:00:00;98525.88;;;21.96;15.38
79138;BME280;68544;45.566;10.238;2023-04-01T15:05:32;98529.75;;;22.14;16.36
79138;BME280;68544;45.566;10.238;2023-04-01T15:08:21;98531.59;;;22.00;14.58
79138;BME280;68544;45.566;10.238;2023-04-01T15:18:58;98519.28;;;21.74;14.22
79138;BME280;68544;45.566;10.238;2023-04-01T15:21:37;98519.59;;;21.72;14.76
79138;BME280;68544;45.566;10.238;2023-04-01T15:24:53;98522.09;;;21.69;14.90
79138;BME280;68544;45.566;10.238;2023-04-01T15:27:18;98526.75;;;21.50;16.26
79138;BME280;68544;45.566;10.238;2023-04-01T15:38:02;98515.38;;;21.14;18.27
79138;BME280;68544;45.566;10.238;2023-04-01T15:40:44;98511.91;;;21.03;16.74
79138;BME280;68544;45.566;10.238;2023-04-01T15:57:32;98495.41;;;20.80;17.99
79138;BME280;68544;45.566;10.238;2023-04-01T16:00:17;98499.84;;;20.76;17.72
79138;BME280;68544;45.566;10.238;2023-04-01T16:03:31;98496.00;;;20.77;17.48
79138;BME280;68544;45.566;10.238;2023-04-01T16:12:10;98496.44;;;20.60;17.82
79138;BME280;68544;45.566;10.238;2023-04-01T16:15:02;98499.50;;;20.54;17.66
79138;BME280;68544;45.566;10.238;2023-04-01T16:20:23;98497.09;;;20.47;18.66
79138;BME280;68544;45.566;10.238;2023-04-01T16:23:04;98496.38;;;20.36;18.65
79138;BME280;68544;45.566;10.238;2023-04-01T16:30:58;98488.72;;;20.33;18.65
79138;BME280;68544;45.566;10.238;2023-04-01T16:33:35;98492.63;;;20.27;19.48
79138;BME280;68544;45.566;10.238;2023-04-01T16:36:13;98493.69;;;20.31;18.79
79138;BME280;68544;45.566;10.238;2023-04-01T16:39:27;98488.59;;;20.15;18.83
79138;BME280;68544;45.566;10.238;2023-04-01T16:45:17;98489.75;;;20.04;19.45
79138;BME280;68544;45.566;10.238;2023-04-01T16:47:56;98488.41;;;20.01;19.49
79138;BME280;68544;45.566;10.238;2023-04-01T16:50:42;98495.25;;;19.99;19.54
79138;BME280;68544;45.566;10.238;2023-04-01T16:55:50;98486.13;;;19.69;20.24
79138;BME280;68544;45.566;10.238;2023-04-01T16:58:22;98486.97;;;19.70;20.51
79138;BME280;68544;45.566;10.238;2023-04-01T17:00:53;98486.97;;;19.70;20.36
79138;BME280;68544;45.566;10.238;2023-04-01T17:03:26;98487.56;;;19.62;20.47
79138;BME280;68544;45.566;10.238;2023-04-01T17:09:22;98481.06;;;19.48;21.34
79138;BME280;68544;45.566;10.238;2023-04-01T17:17:27;98482.75;;;19.29;21.45
79138;BME280;68544;45.566;10.238;2023-04-01T17:34:31;98510.25;;;17.83;26.28
79138;BME280;68544;45.566;10.238;2023-04-01T17:37:20;98518.16;;;17.74;26.49
79138;BME280;68544;45.566;10.238;2023-04-01T17:43:12;98520.06;;;17.69;25.33
79138;BME280;68544;45.566;10.238;2023-04-01T17:45:50;98511.84;;;17.64;26.44
79138;BME280;68544;45.566;10.238;2023-04-01T17:48:20;98526.34;;;17.64;26.91
79138;BME280;68544;45.566;10.238;2023-04-01T17:50:53;98526.03;;;17.56;27.02
79138;BME280;68544;45.566;10.238;2023-04-01T18:04:34;98538.50;;;17.47;26.98
79138;BME280;68544;45.566;10.238;2023-04-01T18:07:20;98538.47;;;17.42;27.14
79138;BME280;68544;45.566;10.238;2023-04-01T18:15:40;98545.13;;;17.04;28.07
79138;BME280;68544;45.566;10.238;2023-04-01T18:18:26;98550.81;;;16.97;28.17
79138;BME280;68544;45.566;10.238;2023-04-01T18:23:58;98545.25;;;16.77;28.40
79138;BME280;68544;45.566;10.238;2023-04-01T18:26:29;98554.75;;;16.70;28.67
79138;BME280;68544;45.566;10.238;2023-04-01T18:29:02;98560.41;;;16.63;28.12
79138;BME280;68544;45.566;10.238;2023-04-01T18:31:36;98563.75;;;16.43;28.10
79138;BME280;68544;45.566;10.238;2023-04-01T18:34:30;98557.94;;;16.30;28.25
79138;BME280;68544;45.566;10.238;2023-04-01T18:42:30;98568.78;;;16.25;28.91
79138;BME280;68544;45.566;10.238;2023-04-01T18:48:00;98574.03;;;16.05;29.91
79138;BME280;68544;45.566;10.238;2023-04-01T18:50:50;98591.59;;;16.19;29.72
79138;BME280;68544;45.566;10.238;2023-04-01T18:53:41;98587.91;;;16.30;29.41
79138;BME280;68544;45.566;10.238;2023-04-01T18:56:24;98591.91;;;16.22;29.51
79138;BME280;68544;45.566;10.238;2023-04-01T18:59:11;98594.25;;;16.14;29.52
79138;BME280;68544;45.566;10.238;2023-04-01T19:06:58;98591.81;;;15.86;30.95
79138;BME280;68544;45.566;10.238;2023-04-01T19:09:29;98590.22;;;15.68;31.89
79138;BME280;68544;45.566;10.238;2023-04-01T19:20:37;98618.88;;;15.75;30.93
79138;BME280;68544;45.566;10.238;2023-04-01T19:28:21;98621.81;;;15.47;31.38
79138;BME280;68544;45.566;10.238;2023-04-01T19:30:55;98616.53;;;15.41;31.55
79138;BME280;68544;45.566;10.238;2023-04-01T19:33:43;98625.34;;;15.31;31.83
79138;BME280;68544;45.566;10.238;2023-04-01T19:36:16;98624.28;;;15.32;31.43
79138;BME280;68544;45.566;10.238;2023-04-01T19:39:08;98617.34;;;15.41;31.04
79138;BME280;68544;45.566;10.238;2023-04-01T19:41:46;98625.53;;;15.41;31.12
79138;BME280;68544;45.566;10.238;2023-04-01T19:47:15;98614.22;;;15.49;30.67
79138;BME280;68544;45.566;10.238;2023-04-01T19:54:58;98613.31;;;15.65;27.27
79138;BME280;68544;45.566;10.238;2023-04-01T19:57:37;98597.06;;;15.70;27.50
79138;BME280;68544;45.566;10.238;2023-04-01T20:05:29;98601.88;;;15.85;27.08
79138;BME280;68544;45.566;10.238;2023-04-01T20:08:07;98608.13;;;15.86;27.15
79138;BME280;68544;45.566;10.238;2023-04-01T20:16:11;98624.59;;;15.36;30.62
79138;BME280;68544;45.566;10.238;2023-04-01T20:18:59;98620.19;;;15.30;31.35
79138;BME280;68544;45.566;10.238;2023-04-01T20:21:42;98613.91;;;15.29;31.23
79138;BME280;68544;45.566;10.238;2023-04-01T20:26:43;98621.06;;;15.14;31.43
79138;BME280;68544;45.566;10.238;2023-04-01T20:29:36;98621.88;;;15.14;31.03
79138;BME280;68544;45.566;10.238;2023-04-01T20:35:08;98623.41;;;15.10;30.60
79138;BME280;68544;45.566;10.238;2023-04-01T20:37:53;98631.22;;;15.23;30.09
79138;BME280;68544;45.566;10.238;2023-04-01T20:46:27;98630.13;;;15.41;29.47
79138;BME280;68544;45.566;10.238;2023-04-01T20:51:45;98624.84;;;15.51;29.37
79138;BME280;68544;45.566;10.238;2023-04-01T20:57:57;98642.56;;;15.53;29.86
79138;BME280;68544;45.566;10.238;2023-04-01T21:00:34;98635.41;;;15.47;29.53